Карточка аэропорта UNEE

Внимание!
Информация на этой странице в стадии наполнения.
Если вы не увидели какой-то информации, или заметили неточность - пожалуйста сообщите нам!
Спасибо!
Команда RU-STAFF
Название аэропортаКемерово
Название аэропорта (англ.)Kemerovo
Превышение873 ft. (266.1 m.)
Координаты55°16.2', 86°6.6'
Высота перехода500m
Эшелон переходаQFE>=760mm:FL030; QFE<=759=>733mm:FL040; QFE<=732mm:FL050
Коды ответчика5260-5267
Зона ОрВДНовосибирск РПИ (UNNT)
Данные METARUNEE 042100Z 31002MPS 3000 FU NSC M23/M26 Q1033 R23/390150 NOSIG RMK QFE751
Проноз погоды (TAF)UNEE 042000Z 0421/0521 29003MPS 1500 FU BKN011 TEMPO 0421/0503 0500 -SN FZFG BKN005 FM050500 18003MPS 6000 SCT040 TEMPO 0509/0515 3000 -SN FU SCT011
NOTAMshow/hide NOTAM
AWOS   TABLE

Информация о ВПП

ВПП Длина ВПП (м.) Покрытие Курс ВПП Частота ILS
053200Цементобетон46 
233200Цементобетон226109.1

Диспетчерские позиции

Позывной Наименование органа УВД Частота
UNEE_TWRКемерово-Старт118.3
UNEE_APPКемерово-Подход125.5

Сценарии

Сценарий
Нет результатов.


Спутниковое изображение